sensor_id;sensor_type;location;lat;lon;timestamp;temperature;humidity
9949;DHT22;5013;51.840;8.276;2023-02-15T00:01:11;2.90;99.90
9949;DHT22;5013;51.840;8.276;2023-02-15T00:03:36;2.80;99.90
9949;DHT22;5013;51.840;8.276;2023-02-15T00:06:04;2.80;99.90
9949;DHT22;5013;51.840;8.276;2023-02-15T00:08:30;2.90;99.90
9949;DHT22;5013;51.840;8.276;2023-02-15T00:11:15;2.90;99.90
9949;DHT22;5013;51.840;8.276;2023-02-15T00:13:41;2.90;1.00
9949;DHT22;5013;51.840;8.276;2023-02-15T00:16:10;2.80;99.90
9949;DHT22;5013;51.840;8.276;2023-02-15T00:18:37;2.80;99.90
9949;DHT22;5013;51.840;8.276;2023-02-15T00:21:05;2.80;1.00
9949;DHT22;5013;51.840;8.276;2023-02-15T00:23:31;2.90;99.90
9949;DHT22;5013;51.840;8.276;2023-02-15T00:26:08;2.90;1.00
9949;DHT22;5013;51.840;8.276;2023-02-15T00:28:34;2.90;1.00
9949;DHT22;5013;51.840;8.276;2023-02-15T00:31:07;2.80;99.90
9949;DHT22;5013;51.840;8.276;2023-02-15T00:33:33;2.80;1.00
9949;DHT22;5013;51.840;8.276;2023-02-15T00:35:59;2.80;99.90
9949;DHT22;5013;51.840;8.276;2023-02-15T00:38:29;2.70;1.00
9949;DHT22;5013;51.840;8.276;2023-02-15T00:40:56;2.70;25.40
9949;DHT22;5013;51.840;8.276;2023-02-15T00:43:22;2.70;99.90
9949;DHT22;5013;51.840;8.276;2023-02-15T00:45:48;2.60;1.00
9949;DHT22;5013;51.840;8.276;2023-02-15T00:48:14;2.60;1.00
9949;DHT22;5013;51.840;8.276;2023-02-15T00:50:40;2.60;99.90
9949;DHT22;5013;51.840;8.276;2023-02-15T00:53:05;2.50;16.40
9949;DHT22;5013;51.840;8.276;2023-02-15T00:55:31;2.50;1.00
9949;DHT22;5013;51.840;8.276;2023-02-15T00:57:57;2.40;99.90
9949;DHT22;5013;51.840;8.276;2023-02-15T01:00:22;2.40;1.00
9949;DHT22;5013;51.840;8.276;2023-02-15T01:02:48;2.30;1.00
9949;DHT22;5013;51.840;8.276;2023-02-15T01:05:14;2.20;1.00
9949;DHT22;5013;51.840;8.276;2023-02-15T01:07:40;2.30;99.90
9949;DHT22;5013;51.840;8.276;2023-02-15T01:10:06;2.30;99.90
9949;DHT22;5013;51.840;8.276;2023-02-15T01:12:33;2.20;1.00
9949;DHT22;5013;51.840;8.276;2023-02-15T01:14:58;2.10;99.90
9949;DHT22;5013;51.840;8.276;2023-02-15T01:17:24;2.10;1.00
9949;DHT22;5013;51.840;8.276;2023-02-15T01:19:49;2.10;28.50
9949;DHT22;5013;51.840;8.276;2023-02-15T01:22:17;2.20;1.00
9949;DHT22;5013;51.840;8.276;2023-02-15T01:24:42;2.10;1.00
9949;DHT22;5013;51.840;8.276;2023-02-15T01:27:08;2.00;99.90
9949;DHT22;5013;51.840;8.276;2023-02-15T01:29:33;2.00;47.10
9949;DHT22;5013;51.840;8.276;2023-02-15T01:31:59;2.00;29.50
9949;DHT22;5013;51.840;8.276;2023-02-15T01:34:24;2.00;1.00
9949;DHT22;5013;51.840;8.276;2023-02-15T01:36:50;2.10;1.00
9949;DHT22;5013;51.840;8.276;2023-02-15T01:39:16;2.00;1.00
9949;DHT22;5013;51.840;8.276;2023-02-15T01:41:41;2.00;99.90
9949;DHT22;5013;51.840;8.276;2023-02-15T01:47:07;2.10;99.90
9949;DHT22;5013;51.840;8.276;2023-02-15T01:49:34;2.00;99.90
9949;DHT22;5013;51.840;8.276;2023-02-15T01:51:59;2.00;99.90
9949;DHT22;5013;51.840;8.276;2023-02-15T01:54:31;2.10;1.00
9949;DHT22;5013;51.840;8.276;2023-02-15T01:57:05;2.00;99.90
9949;DHT22;5013;51.840;8.276;2023-02-15T01:59:33;2.00;99.90
9949;DHT22;5013;51.840;8.276;2023-02-15T02:02:00;2.00;1.00
9949;DHT22;5013;51.840;8.276;2023-02-15T02:04:39;1.90;1.00
9949;DHT22;5013;51.840;8.276;2023-02-15T02:07:07;1.90;1.00
9949;DHT22;5013;51.840;8.276;2023-02-15T02:09:34;1.90;1.00
9949;DHT22;5013;51.840;8.276;2023-02-15T02:12:01;1.90;99.90
9949;DHT22;5013;51.840;8.276;2023-02-15T02:14:27;1.90;1.00
9949;DHT22;5013;51.840;8.276;2023-02-15T02:17:11;1.90;1.00
9949;DHT22;5013;51.840;8.276;2023-02-15T02:30:46;1.80;99.90
9949;DHT22;5013;51.840;8.276;2023-02-15T02:33:42;1.80;99.90
9949;DHT22;5013;51.840;8.276;2023-02-15T02:39:07;1.70;1.00
9949;DHT22;5013;51.840;8.276;2023-02-15T02:41:50;1.70;1.00
9949;DHT22;5013;51.840;8.276;2023-02-15T02:49:41;1.80;1.00
9949;DHT22;5013;51.840;8.276;2023-02-15T02:54:59;1.70;99.90
9949;DHT22;5013;51.840;8.276;2023-02-15T02:57:27;1.70;1.00
9949;DHT22;5013;51.840;8.276;2023-02-15T02:59:55;1.70;1.00
9949;DHT22;5013;51.840;8.276;2023-02-15T03:02:36;1.70;99.90
9949;DHT22;5013;51.840;8.276;2023-02-15T03:05:06;1.70;5.80
9949;DHT22;5013;51.840;8.276;2023-02-15T03:07:34;1.60;67.60
9949;DHT22;5013;51.840;8.276;2023-02-15T03:10:04;1.60;1.00
9949;DHT22;5013;51.840;8.276;2023-02-15T03:12:33;1.60;1.00
9949;DHT22;5013;51.840;8.276;2023-02-15T03:15:04;1.60;1.00
9949;DHT22;5013;51.840;8.276;2023-02-15T03:17:32;1.60;1.00
9949;DHT22;5013;51.840;8.276;2023-02-15T03:20:02;1.60;1.00
9949;DHT22;5013;51.840;8.276;2023-02-15T03:22:42;1.40;99.90
9949;DHT22;5013;51.840;8.276;2023-02-15T03:25:14;1.40;99.90
9949;DHT22;5013;51.840;8.276;2023-02-15T03:27:45;1.40;99.90
9949;DHT22;5013;51.840;8.276;2023-02-15T03:30:13;1.40;1.00
9949;DHT22;5013;51.840;8.276;2023-02-15T03:32:41;1.30;99.90
9949;DHT22;5013;51.840;8.276;2023-02-15T03:35:08;1.30;99.90
9949;DHT22;5013;51.840;8.276;2023-02-15T03:37:57;1.30;1.00
9949;DHT22;5013;51.840;8.276;2023-02-15T03:40:34;1.30;1.00
9949;DHT22;5013;51.840;8.276;2023-02-15T03:45:57;1.30;73.40
9949;DHT22;5013;51.840;8.276;2023-02-15T03:48:32;1.20;1.00
9949;DHT22;5013;51.840;8.276;2023-02-15T03:51:05;1.20;1.00
9949;DHT22;5013;51.840;8.276;2023-02-15T03:53:51;1.20;1.00
9949;DHT22;5013;51.840;8.276;2023-02-15T03:56:17;1.10;1.00
9949;DHT22;5013;51.840;8.276;2023-02-15T03:58:43;1.10;1.00
9949;DHT22;5013;51.840;8.276;2023-02-15T04:01:47;1.10;1.00
9949;DHT22;5013;51.840;8.276;2023-02-15T04:04:35;1.20;1.00
9949;DHT22;5013;51.840;8.276;2023-02-15T04:07:03;1.10;1.00
9949;DHT22;5013;51.840;8.276;2023-02-15T04:09:28;1.10;1.00
9949;DHT22;5013;51.840;8.276;2023-02-15T04:12:12;1.10;1.00
9949;DHT22;5013;51.840;8.276;2023-02-15T04:14:38;1.10;99.90
9949;DHT22;5013;51.840;8.276;2023-02-15T04:17:22;1.10;1.00
9949;DHT22;5013;51.840;8.276;2023-02-15T04:19:48;1.10;99.90
9949;DHT22;5013;51.840;8.276;2023-02-15T04:22:32;1.00;99.90
9949;DHT22;5013;51.840;8.276;2023-02-15T04:25:16;1.00;99.90
9949;DHT22;5013;51.840;8.276;2023-02-15T04:27:44;1.00;1.00
9949;DHT22;5013;51.840;8.276;2023-02-15T04:30:11;1.00;1.00
9949;DHT22;5013;51.840;8.276;2023-02-15T04:32:37;1.20;1.00
9949;DHT22;5013;51.840;8.276;2023-02-15T04:35:04;1.20;4.70
9949;DHT22;5013;51.840;8.276;2023-02-15T04:37:31;1.20;1.00
9949;DHT22;5013;51.840;8.276;2023-02-15T04:39:56;1.20;1.00
9949;DHT22;5013;51.840;8.276;2023-02-15T04:42:24;1.20;1.00
9949;DHT22;5013;51.840;8.276;2023-02-15T04:44:50;1.20;1.00
9949;DHT22;5013;51.840;8.276;2023-02-15T04:47:16;1.10;99.90
9949;DHT22;5013;51.840;8.276;2023-02-15T04:49:42;1.10;99.90
9949;DHT22;5013;51.840;8.276;2023-02-15T04:52:08;1.00;99.90
9949;DHT22;5013;51.840;8.276;2023-02-15T04:54:33;0.90;1.00
9949;DHT22;5013;51.840;8.276;2023-02-15T04:56:59;1.00;1.00
9949;DHT22;5013;51.840;8.276;2023-02-15T04:59:24;1.10;99.90
9949;DHT22;5013;51.840;8.276;2023-02-15T05:01:50;1.10;1.00
9949;DHT22;5013;51.840;8.276;2023-02-15T05:04:15;1.10;99.90
9949;DHT22;5013;51.840;8.276;2023-02-15T05:06:41;1.00;1.00
9949;DHT22;5013;51.840;8.276;2023-02-15T05:09:06;0.90;95.00
9949;DHT22;5013;51.840;8.276;2023-02-15T05:11:32;1.00;1.00
9949;DHT22;5013;51.840;8.276;2023-02-15T05:13:58;1.00;39.90
9949;DHT22;5013;51.840;8.276;2023-02-15T05:16:23;0.90;1.00
9949;DHT22;5013;51.840;8.276;2023-02-15T05:18:49;0.90;99.90
9949;DHT22;5013;51.840;8.276;2023-02-15T05:21:14;0.90;1.00
9949;DHT22;5013;51.840;8.276;2023-02-15T05:23:42;1.00;99.90
9949;DHT22;5013;51.840;8.276;2023-02-15T05:26:11;0.80;99.90
9949;DHT22;5013;51.840;8.276;2023-02-15T05:28:56;0.90;1.00
9949;DHT22;5013;51.840;8.276;2023-02-15T05:31:21;0.90;1.00
9949;DHT22;5013;51.840;8.276;2023-02-15T05:33:47;0.90;1.00
9949;DHT22;5013;51.840;8.276;2023-02-15T05:36:13;0.90;99.90
9949;DHT22;5013;51.840;8.276;2023-02-15T05:38:39;0.90;1.00
9949;DHT22;5013;51.840;8.276;2023-02-15T05:41:05;1.00;1.00
9949;DHT22;5013;51.840;8.276;2023-02-15T05:43:32;1.00;26.30
9949;DHT22;5013;51.840;8.276;2023-02-15T05:45:58;1.00;1.00
9949;DHT22;5013;51.840;8.276;2023-02-15T05:48:25;1.00;99.90
9949;DHT22;5013;51.840;8.276;2023-02-15T05:53:28;1.00;1.00
9949;DHT22;5013;51.840;8.276;2023-02-15T05:55:54;0.90;46.70
9949;DHT22;5013;51.840;8.276;2023-02-15T05:58:25;1.00;1.00
9949;DHT22;5013;51.840;8.276;2023-02-15T06:00:51;0.90;1.00
9949;DHT22;5013;51.840;8.276;2023-02-15T06:03:16;1.00;1.00
9949;DHT22;5013;51.840;8.276;2023-02-15T06:05:42;1.00;1.00
9949;DHT22;5013;51.840;8.276;2023-02-15T06:08:07;0.90;99.90
9949;DHT22;5013;51.840;8.276;2023-02-15T06:10:33;0.90;1.00
9949;DHT22;5013;51.840;8.276;2023-02-15T06:12:58;0.90;1.00
9949;DHT22;5013;51.840;8.276;2023-02-15T06:15:24;0.80;99.90
9949;DHT22;5013;51.840;8.276;2023-02-15T06:17:49;0.90;1.00
9949;DHT22;5013;51.840;8.276;2023-02-15T06:20:15;0.80;1.00
9949;DHT22;5013;51.840;8.276;2023-02-15T06:22:41;0.80;1.00
9949;DHT22;5013;51.840;8.276;2023-02-15T06:25:06;0.70;99.80
9949;DHT22;5013;51.840;8.276;2023-02-15T06:27:35;0.70;1.00
9949;DHT22;5013;51.840;8.276;2023-02-15T06:30:01;0.70;1.00
9949;DHT22;5013;51.840;8.276;2023-02-15T06:32:26;0.70;1.00
9949;DHT22;5013;51.840;8.276;2023-02-15T06:34:52;0.70;99.90
9949;DHT22;5013;51.840;8.276;2023-02-15T06:37:17;0.80;1.00
9949;DHT22;5013;51.840;8.276;2023-02-15T06:39:43;0.80;1.00
9949;DHT22;5013;51.840;8.276;2023-02-15T06:42:09;0.80;1.00
9949;DHT22;5013;51.840;8.276;2023-02-15T06:44:35;0.80;1.00
9949;DHT22;5013;51.840;8.276;2023-02-15T06:47:00;0.80;1.00
9949;DHT22;5013;51.840;8.276;2023-02-15T06:49:26;0.80;1.00
9949;DHT22;5013;51.840;8.276;2023-02-15T06:51:52;0.80;99.90
9949;DHT22;5013;51.840;8.276;2023-02-15T06:54:17;0.60;1.00
9949;DHT22;5013;51.840;8.276;2023-02-15T06:56:43;0.60;1.00
9949;DHT22;5013;51.840;8.276;2023-02-15T06:59:09;0.70;99.90
9949;DHT22;5013;51.840;8.276;2023-02-15T07:01:34;0.80;1.00
9949;DHT22;5013;51.840;8.276;2023-02-15T07:04:02;0.80;99.90
9949;DHT22;5013;51.840;8.276;2023-02-15T07:06:31;0.90;1.00
9949;DHT22;5013;51.840;8.276;2023-02-15T07:08:58;0.90;1.00
9949;DHT22;5013;51.840;8.276;2023-02-15T07:11:24;0.90;1.00
9949;DHT22;5013;51.840;8.276;2023-02-15T07:14:08;0.90;1.00
9949;DHT22;5013;51.840;8.276;2023-02-15T07:16:33;1.00;1.00
9949;DHT22;5013;51.840;8.276;2023-02-15T07:18:59;1.10;99.90
9949;DHT22;5013;51.840;8.276;2023-02-15T07:21:24;1.10;1.00
9949;DHT22;5013;51.840;8.276;2023-02-15T07:23:50;1.10;1.00
9949;DHT22;5013;51.840;8.276;2023-02-15T07:26:15;1.20;1.00
9949;DHT22;5013;51.840;8.276;2023-02-15T07:28:41;1.20;1.00
9949;DHT22;5013;51.840;8.276;2023-02-15T07:31:06;1.20;99.90
9949;DHT22;5013;51.840;8.276;2023-02-15T07:33:33;1.30;1.00
9949;DHT22;5013;51.840;8.276;2023-02-15T07:36:01;1.30;24.90
9949;DHT22;5013;51.840;8.276;2023-02-15T07:38:31;1.20;1.00
9949;DHT22;5013;51.840;8.276;2023-02-15T07:40:58;1.30;99.90
9949;DHT22;5013;51.840;8.276;2023-02-15T07:43:24;1.30;99.90
9949;DHT22;5013;51.840;8.276;2023-02-15T07:45:50;1.30;1.00
9949;DHT22;5013;51.840;8.276;2023-02-15T07:48:15;1.40;1.00
9949;DHT22;5013;51.840;8.276;2023-02-15T07:50:41;1.50;99.90
9949;DHT22;5013;51.840;8.276;2023-02-15T07:53:06;1.50;1.00
9949;DHT22;5013;51.840;8.276;2023-02-15T07:55:32;1.50;1.00
9949;DHT22;5013;51.840;8.276;2023-02-15T07:57:57;1.60;1.00
9949;DHT22;5013;51.840;8.276;2023-02-15T08:00:23;1.70;1.00
9949;DHT22;5013;51.840;8.276;2023-02-15T08:02:55;1.70;99.90
9949;DHT22;5013;51.840;8.276;2023-02-15T08:05:39;1.80;1.00
9949;DHT22;5013;51.840;8.276;2023-02-15T08:08:06;1.90;52.90
9949;DHT22;5013;51.840;8.276;2023-02-15T08:10:32;1.90;1.00
9949;DHT22;5013;51.840;8.276;2023-02-15T08:13:16;1.90;1.00
9949;DHT22;5013;51.840;8.276;2023-02-15T08:15:51;1.90;26.40
9949;DHT22;5013;51.840;8.276;2023-02-15T08:18:16;2.10;1.00
9949;DHT22;5013;51.840;8.276;2023-02-15T08:20:42;2.10;1.00
9949;DHT22;5013;51.840;8.276;2023-02-15T08:23:08;2.10;1.00
9949;DHT22;5013;51.840;8.276;2023-02-15T08:25:34;2.20;1.00
9949;DHT22;5013;51.840;8.276;2023-02-15T08:27:59;2.20;1.00
9949;DHT22;5013;51.840;8.276;2023-02-15T08:30:25;2.30;1.00
9949;DHT22;5013;51.840;8.276;2023-02-15T08:32:50;2.50;1.00
9949;DHT22;5013;51.840;8.276;2023-02-15T08:35:16;2.50;1.00
9949;DHT22;5013;51.840;8.276;2023-02-15T08:37:42;2.60;1.00
9949;DHT22;5013;51.840;8.276;2023-02-15T08:40:08;2.60;99.90
9949;DHT22;5013;51.840;8.276;2023-02-15T08:42:34;2.80;1.00
9949;DHT22;5013;51.840;8.276;2023-02-15T08:44:59;2.80;1.00
9949;DHT22;5013;51.840;8.276;2023-02-15T08:47:25;2.90;1.00
9949;DHT22;5013;51.840;8.276;2023-02-15T08:49:50;3.00;99.90
9949;DHT22;5013;51.840;8.276;2023-02-15T08:52:16;3.10;99.90
9949;DHT22;5013;51.840;8.276;2023-02-15T08:54:42;3.20;1.00
9949;DHT22;5013;51.840;8.276;2023-02-15T08:57:08;3.30;20.60
9949;DHT22;5013;51.840;8.276;2023-02-15T08:59:34;3.40;29.30
9949;DHT22;5013;51.840;8.276;2023-02-15T09:02:00;3.50;14.70
9949;DHT22;5013;51.840;8.276;2023-02-15T09:04:26;3.60;1.00
9949;DHT22;5013;51.840;8.276;2023-02-15T09:06:52;3.70;99.90
9949;DHT22;5013;51.840;8.276;2023-02-15T09:09:19;3.80;1.00
9949;DHT22;5013;51.840;8.276;2023-02-15T09:11:47;3.90;99.90
9949;DHT22;5013;51.840;8.276;2023-02-15T09:14:16;4.10;99.90
9949;DHT22;5013;51.840;8.276;2023-02-15T09:16:44;4.10;1.00
9949;DHT22;5013;51.840;8.276;2023-02-15T09:19:11;4.20;1.00
9949;DHT22;5013;51.840;8.276;2023-02-15T09:21:37;4.40;1.00
9949;DHT22;5013;51.840;8.276;2023-02-15T09:24:07;4.50;1.00
9949;DHT22;5013;51.840;8.276;2023-02-15T09:26:35;4.70;1.00
9949;DHT22;5013;51.840;8.276;2023-02-15T09:29:02;4.70;99.90
9949;DHT22;5013;51.840;8.276;2023-02-15T09:31:40;4.80;99.90
9949;DHT22;5013;51.840;8.276;2023-02-15T09:34:09;4.90;99.90
9949;DHT22;5013;51.840;8.276;2023-02-15T09:36:37;5.00;1.00
9949;DHT22;5013;51.840;8.276;2023-02-15T09:39:13;5.10;99.90
9949;DHT22;5013;51.840;8.276;2023-02-15T09:55:53;5.90;1.00
9949;DHT22;5013;51.840;8.276;2023-02-15T10:12:19;6.90;1.00
9949;DHT22;5013;51.840;8.276;2023-02-15T10:15:51;7.00;1.00
9949;DHT22;5013;51.840;8.276;2023-02-15T10:21:18;7.20;1.00
9949;DHT22;5013;51.840;8.276;2023-02-15T10:24:11;7.50;1.00
9949;DHT22;5013;51.840;8.276;2023-02-15T10:26:47;7.60;99.90
9949;DHT22;5013;51.840;8.276;2023-02-15T10:29:28;7.90;99.90
9949;DHT22;5013;51.840;8.276;2023-02-15T10:32:04;8.00;99.90
9949;DHT22;5013;51.840;8.276;2023-02-15T10:34:43;8.20;1.00
9949;DHT22;5013;51.840;8.276;2023-02-15T10:37:41;8.30;1.00
9949;DHT22;5013;51.840;8.276;2023-02-15T10:40:27;8.50;1.00
9949;DHT22;5013;51.840;8.276;2023-02-15T10:50:50;8.70;99.90
9949;DHT22;5013;51.840;8.276;2023-02-15T10:58:54;8.90;12.50
9949;DHT22;5013;51.840;8.276;2023-02-15T11:01:26;9.10;99.90
9949;DHT22;5013;51.840;8.276;2023-02-15T11:06:56;9.40;90.70
9949;DHT22;5013;51.840;8.276;2023-02-15T11:09:28;9.30;99.90
9949;DHT22;5013;51.840;8.276;2023-02-15T11:11:56;9.40;99.90
9949;DHT22;5013;51.840;8.276;2023-02-15T11:17:22;9.80;99.90
9949;DHT22;5013;51.840;8.276;2023-02-15T11:20:09;9.70;1.00
9949;DHT22;5013;51.840;8.276;2023-02-15T11:22:40;9.90;3.50
9949;DHT22;5013;51.840;8.276;2023-02-15T11:25:20;9.90;3.90
9949;DHT22;5013;51.840;8.276;2023-02-15T11:27:49;10.00;75.60
9949;DHT22;5013;51.840;8.276;2023-02-15T11:30:40;10.10;16.00
9949;DHT22;5013;51.840;8.276;2023-02-15T11:33:17;10.30;1.00
9949;DHT22;5013;51.840;8.276;2023-02-15T11:38:28;10.70;1.00
9949;DHT22;5013;51.840;8.276;2023-02-15T11:41:01;10.50;1.00
9949;DHT22;5013;51.840;8.276;2023-02-15T11:43:59;10.70;1.00
9949;DHT22;5013;51.840;8.276;2023-02-15T11:46:29;10.90;1.00
9949;DHT22;5013;51.840;8.276;2023-02-15T11:48:55;11.00;1.00
9949;DHT22;5013;51.840;8.276;2023-02-15T11:51:22;11.10;1.00
9949;DHT22;5013;51.840;8.276;2023-02-15T11:53:48;11.20;1.00
9949;DHT22;5013;51.840;8.276;2023-02-15T11:56:20;11.30;1.00
9949;DHT22;5013;51.840;8.276;2023-02-15T11:58:59;11.50;1.00
9949;DHT22;5013;51.840;8.276;2023-02-15T12:01:35;11.60;1.00
9949;DHT22;5013;51.840;8.276;2023-02-15T12:04:24;11.60;1.00
9949;DHT22;5013;51.840;8.276;2023-02-15T12:07:15;11.60;1.00
9949;DHT22;5013;51.840;8.276;2023-02-15T12:09:48;11.60;1.00
9949;DHT22;5013;51.840;8.276;2023-02-15T12:12:28;11.60;1.00
9949;DHT22;5013;51.840;8.276;2023-02-15T12:14:58;11.80;1.00
9949;DHT22;5013;51.840;8.276;2023-02-15T12:17:27;11.90;99.90
9949;DHT22;5013;51.840;8.276;2023-02-15T12:19:57;12.10;99.90
9949;DHT22;5013;51.840;8.276;2023-02-15T12:22:25;12.30;99.90
9949;DHT22;5013;51.840;8.276;2023-02-15T12:24:55;12.40;99.90
9949;DHT22;5013;51.840;8.276;2023-02-15T12:27:24;12.40;99.90
9949;DHT22;5013;51.840;8.276;2023-02-15T12:29:59;12.40;99.90
9949;DHT22;5013;51.840;8.276;2023-02-15T12:32:31;12.40;99.90
9949;DHT22;5013;51.840;8.276;2023-02-15T12:35:22;12.30;99.90
9949;DHT22;5013;51.840;8.276;2023-02-15T12:37:59;12.30;99.90
9949;DHT22;5013;51.840;8.276;2023-02-15T12:40:30;12.60;99.90
9949;DHT22;5013;51.840;8.276;2023-02-15T12:42:56;12.80;99.90
9949;DHT22;5013;51.840;8.276;2023-02-15T12:45:31;12.90;99.90
9949;DHT22;5013;51.840;8.276;2023-02-15T12:48:09;12.90;99.90
9949;DHT22;5013;51.840;8.276;2023-02-15T12:50:38;12.70;99.90
9949;DHT22;5013;51.840;8.276;2023-02-15T12:55:32;13.00;99.90
9949;DHT22;5013;51.840;8.276;2023-02-15T12:58:19;13.00;99.90
9949;DHT22;5013;51.840;8.276;2023-02-15T13:00:46;13.00;99.90
9949;DHT22;5013;51.840;8.276;2023-02-15T13:03:22;13.00;99.90
9949;DHT22;5013;51.840;8.276;2023-02-15T13:05:53;13.10;99.90
9949;DHT22;5013;51.840;8.276;2023-02-15T13:08:27;13.10;99.90
9949;DHT22;5013;51.840;8.276;2023-02-15T13:11:04;13.10;99.90
9949;DHT22;5013;51.840;8.276;2023-02-15T13:13:34;13.20;99.90
9949;DHT22;5013;51.840;8.276;2023-02-15T13:16:12;13.20;99.90
9949;DHT22;5013;51.840;8.276;2023-02-15T13:18:41;13.10;99.90
9949;DHT22;5013;51.840;8.276;2023-02-15T13:23:39;13.40;99.90
9949;DHT22;5013;51.840;8.276;2023-02-15T13:26:14;13.20;99.90
9949;DHT22;5013;51.840;8.276;2023-02-15T13:28:49;13.30;99.90
9949;DHT22;5013;51.840;8.276;2023-02-15T13:31:22;13.40;99.90
9949;DHT22;5013;51.840;8.276;2023-02-15T13:33:54;13.50;99.90
9949;DHT22;5013;51.840;8.276;2023-02-15T13:36:35;13.50;99.90
9949;DHT22;5013;51.840;8.276;2023-02-15T13:41:51;13.50;99.90
9949;DHT22;5013;51.840;8.276;2023-02-15T13:52:18;13.40;99.90
9949;DHT22;5013;51.840;8.276;2023-02-15T14:02:56;13.30;99.90
9949;DHT22;5013;51.840;8.276;2023-02-15T14:08:18;13.50;99.90
9949;DHT22;5013;51.840;8.276;2023-02-15T14:10:57;13.50;99.90
9949;DHT22;5013;51.840;8.276;2023-02-15T14:24:45;13.40;99.90
9949;DHT22;5013;51.840;8.276;2023-02-15T14:29:57;13.30;99.90
9949;DHT22;5013;51.840;8.276;2023-02-15T14:32:30;13.30;99.90
9949;DHT22;5013;51.840;8.276;2023-02-15T14:35:01;13.30;99.90
9949;DHT22;5013;51.840;8.276;2023-02-15T14:43:07;13.20;99.90
9949;DHT22;5013;51.840;8.276;2023-02-15T14:46:08;13.20;99.90
9949;DHT22;5013;51.840;8.276;2023-02-15T14:48:45;13.20;99.90
9949;DHT22;5013;51.840;8.276;2023-02-15T15:05:33;13.10;99.90
9949;DHT22;5013;51.840;8.276;2023-02-15T15:08:02;13.00;99.90
9949;DHT22;5013;51.840;8.276;2023-02-15T15:15:55;13.00;99.90
9949;DHT22;5013;51.840;8.276;2023-02-15T15:18:43;13.00;99.90
9949;DHT22;5013;51.840;8.276;2023-02-15T15:21:09;13.00;99.90
9949;DHT22;5013;51.840;8.276;2023-02-15T15:23:41;12.90;99.90
9949;DHT22;5013;51.840;8.276;2023-02-15T15:26:30;12.90;99.90
9949;DHT22;5013;51.840;8.276;2023-02-15T15:29:00;12.80;99.90
9949;DHT22;5013;51.840;8.276;2023-02-15T15:31:39;12.70;99.90
9949;DHT22;5013;51.840;8.276;2023-02-15T15:37:17;12.60;99.90
9949;DHT22;5013;51.840;8.276;2023-02-15T15:39:59;12.50;99.90
9949;DHT22;5013;51.840;8.276;2023-02-15T15:42:49;12.40;99.90
9949;DHT22;5013;51.840;8.276;2023-02-15T15:50:34;12.10;1.00
9949;DHT22;5013;51.840;8.276;2023-02-15T15:53:01;12.00;1.00
9949;DHT22;5013;51.840;8.276;2023-02-15T15:55:30;11.90;1.00
9949;DHT22;5013;51.840;8.276;2023-02-15T15:57:59;11.80;1.00
9949;DHT22;5013;51.840;8.276;2023-02-15T16:00:40;11.80;1.00
9949;DHT22;5013;51.840;8.276;2023-02-15T16:03:24;11.60;1.00
9949;DHT22;5013;51.840;8.276;2023-02-15T16:05:50;11.60;1.00
9949;DHT22;5013;51.840;8.276;2023-02-15T16:08:33;11.50;1.00
9949;DHT22;5013;51.840;8.276;2023-02-15T16:11:16;11.30;1.00
9949;DHT22;5013;51.840;8.276;2023-02-15T16:13:44;11.20;77.40
9949;DHT22;5013;51.840;8.276;2023-02-15T16:16:12;11.00;99.90
9949;DHT22;5013;51.840;8.276;2023-02-15T16:18:38;10.90;99.90
9949;DHT22;5013;51.840;8.276;2023-02-15T16:21:16;10.80;99.90
9949;DHT22;5013;51.840;8.276;2023-02-15T16:29:16;10.30;1.00
9949;DHT22;5013;51.840;8.276;2023-02-15T16:31:42;10.20;1.00
9949;DHT22;5013;51.840;8.276;2023-02-15T16:34:17;10.00;1.00
9949;DHT22;5013;51.840;8.276;2023-02-15T16:36:43;9.90;8.40
9949;DHT22;5013;51.840;8.276;2023-02-15T16:39:17;9.80;99.90
9949;DHT22;5013;51.840;8.276;2023-02-15T16:41:43;9.70;99.90
9949;DHT22;5013;51.840;8.276;2023-02-15T16:44:19;9.60;99.90
9949;DHT22;5013;51.840;8.276;2023-02-15T16:46:50;9.60;99.90
9949;DHT22;5013;51.840;8.276;2023-02-15T16:49:22;9.60;27.70
9949;DHT22;5013;51.840;8.276;2023-02-15T16:52:11;9.50;13.10
9949;DHT22;5013;51.840;8.276;2023-02-15T16:54:41;9.40;99.90
9949;DHT22;5013;51.840;8.276;2023-02-15T16:57:17;9.30;99.90
9949;DHT22;5013;51.840;8.276;2023-02-15T16:59:47;9.20;99.90
9949;DHT22;5013;51.840;8.276;2023-02-15T17:02:17;9.20;99.90
9949;DHT22;5013;51.840;8.276;2023-02-15T17:04:43;9.10;99.90
9949;DHT22;5013;51.840;8.276;2023-02-15T17:07:19;9.10;99.90
9949;DHT22;5013;51.840;8.276;2023-02-15T17:09:54;9.00;99.90
9949;DHT22;5013;51.840;8.276;2023-02-15T17:12:54;8.90;99.90
9949;DHT22;5013;51.840;8.276;2023-02-15T17:15:33;8.80;99.90
9949;DHT22;5013;51.840;8.276;2023-02-15T17:18:22;8.80;1.00
9949;DHT22;5013;51.840;8.276;2023-02-15T17:20:50;8.70;1.00
9949;DHT22;5013;51.840;8.276;2023-02-15T17:25:52;8.50;1.00
9949;DHT22;5013;51.840;8.276;2023-02-15T17:28:20;8.40;1.00
9949;DHT22;5013;51.840;8.276;2023-02-15T17:30:47;8.40;1.00
9949;DHT22;5013;51.840;8.276;2023-02-15T17:33:21;8.20;1.00
9949;DHT22;5013;51.840;8.276;2023-02-15T17:36:05;8.20;40.80
9949;DHT22;5013;51.840;8.276;2023-02-15T17:38:32;8.10;17.00
9949;DHT22;5013;51.840;8.276;2023-02-15T17:40:57;8.00;99.90
9949;DHT22;5013;51.840;8.276;2023-02-15T17:43:24;8.00;99.90
9949;DHT22;5013;51.840;8.276;2023-02-15T17:45:51;8.00;99.90
9949;DHT22;5013;51.840;8.276;2023-02-15T17:48:35;7.80;99.90
9949;DHT22;5013;51.840;8.276;2023-02-15T17:51:03;7.80;99.90
9949;DHT22;5013;51.840;8.276;2023-02-15T17:53:29;7.70;99.90
9949;DHT22;5013;51.840;8.276;2023-02-15T17:55:55;7.70;99.90
9949;DHT22;5013;51.840;8.276;2023-02-15T17:58:21;7.70;99.90
9949;DHT22;5013;51.840;8.276;2023-02-15T18:00:57;7.70;1.00
9949;DHT22;5013;51.840;8.276;2023-02-15T18:06:29;7.70;1.00
9949;DHT22;5013;51.840;8.276;2023-02-15T18:09:17;7.60;1.00
9949;DHT22;5013;51.840;8.276;2023-02-15T18:12:02;7.70;1.00
9949;DHT22;5013;51.840;8.276;2023-02-15T18:14:27;7.70;1.00
9949;DHT22;5013;51.840;8.276;2023-02-15T18:16:54;7.60;1.00
9949;DHT22;5013;51.840;8.276;2023-02-15T18:19:24;7.60;99.90
9949;DHT22;5013;51.840;8.276;2023-02-15T18:21:51;7.70;99.90
9949;DHT22;5013;51.840;8.276;2023-02-15T18:24:20;7.60;25.40
9949;DHT22;5013;51.840;8.276;2023-02-15T18:26:46;7.60;98.90
9949;DHT22;5013;51.840;8.276;2023-02-15T18:29:12;7.60;99.90
9949;DHT22;5013;51.840;8.276;2023-02-15T18:31:38;7.60;99.90
9949;DHT22;5013;51.840;8.276;2023-02-15T18:34:05;7.50;99.90
9949;DHT22;5013;51.840;8.276;2023-02-15T18:36:39;7.50;99.90
9949;DHT22;5013;51.840;8.276;2023-02-15T18:39:28;7.50;1.00
9949;DHT22;5013;51.840;8.276;2023-02-15T18:41:55;7.50;99.90
9949;DHT22;5013;51.840;8.276;2023-02-15T18:44:21;7.40;99.90
9949;DHT22;5013;51.840;8.276;2023-02-15T18:46:47;7.30;1.00
9949;DHT22;5013;51.840;8.276;2023-02-15T18:49:12;7.20;1.00
9949;DHT22;5013;51.840;8.276;2023-02-15T18:51:38;7.20;99.90
9949;DHT22;5013;51.840;8.276;2023-02-15T18:54:07;7.10;1.00
9949;DHT22;5013;51.840;8.276;2023-02-15T18:56:36;7.10;1.00
9949;DHT22;5013;51.840;8.276;2023-02-15T18:59:02;7.10;1.00
9949;DHT22;5013;51.840;8.276;2023-02-15T19:01:27;7.10;1.00
9949;DHT22;5013;51.840;8.276;2023-02-15T19:03:53;7.00;1.00
9949;DHT22;5013;51.840;8.276;2023-02-15T19:06:20;7.00;1.00
9949;DHT22;5013;51.840;8.276;2023-02-15T19:08:48;7.00;99.90
9949;DHT22;5013;51.840;8.276;2023-02-15T19:11:18;6.90;1.00
9949;DHT22;5013;51.840;8.276;2023-02-15T19:13:45;6.90;1.00
9949;DHT22;5013;51.840;8.276;2023-02-15T19:16:33;6.90;1.00
9949;DHT22;5013;51.840;8.276;2023-02-15T19:19:00;6.90;99.90
9949;DHT22;5013;51.840;8.276;2023-02-15T19:21:30;6.80;1.00
9949;DHT22;5013;51.840;8.276;2023-02-15T19:24:09;6.80;1.00
9949;DHT22;5013;51.840;8.276;2023-02-15T19:26:39;6.90;99.90
9949;DHT22;5013;51.840;8.276;2023-02-15T19:29:05;6.90;99.90
9949;DHT22;5013;51.840;8.276;2023-02-15T19:31:31;6.90;99.90
9949;DHT22;5013;51.840;8.276;2023-02-15T19:33:56;6.80;99.90